Time;durP1;ratioP1;P1;durP2;ratioP2;P2;SDS_P1;SDS_P2;PMS_P1;PMS_P2;Temp;Humidity;BMP_temperature;BMP_pressure;BME280_temperature;BME280_humidity;BME280_pressure;Samples;Min_cycle;Max_cycle;Signal;HPM_P1;HPM_P2
2022/01/06 00:00:11;;;;;;;15.50;2.97;;;3.90;99.90;;;;;;5089649;27;20067;-70
2022/01/06 00:02:37;;;;;;;13.32;2.60;;;4.00;99.90;;;;;;5105469;27;20038;-74
2022/01/06 00:05:03;;;;;;;10.50;2.42;;;4.10;99.90;;;;;;5136905;27;20031;-75
2022/01/06 00:07:30;;;;;;;10.82;2.30;;;4.00;99.90;;;;;;5118327;27;21101;-72
2022/01/06 00:09:55;;;;;;;13.65;2.45;;;4.20;99.90;;;;;;5117852;27;20049;-71
2022/01/06 00:12:27;;;;;;;13.88;3.00;;;4.40;99.90;;;;;;5118625;27;20039;-74
2022/01/06 00:15:10;;;;;;;16.92;2.78;;;4.50;99.90;;;;;;5135511;27;20053;-74
2022/01/06 00:18:09;;;;;;;14.63;2.85;;;4.40;99.90;;;;;;5112411;27;20058;-71
2022/01/06 00:25:46;;;;;;;15.63;2.95;;;4.30;99.90;;;;;;5116789;27;20054;-73
2022/01/06 00:28:13;;;;;;;14.25;3.00;;;4.20;99.90;;;;;;5115125;27;20099;-72
2022/01/06 00:30:39;;;;;;;11.32;2.33;;;4.30;99.90;;;;;;5116114;27;20435;-74
2022/01/06 00:33:08;;;;;;;14.95;3.20;;;4.10;99.90;;;;;;5108860;27;20065;-72
2022/01/06 00:35:34;;;;;;;18.95;2.90;;;4.20;99.90;;;;;;5132091;27;20039;-75
2022/01/06 00:38:00;;;;;;;11.88;2.47;;;4.10;99.90;;;;;;5130003;27;20045;-73
2022/01/06 00:40:27;;;;;;;13.90;2.50;;;4.00;99.90;;;;;;5134357;27;20038;-73
2022/01/06 00:42:52;;;;;;;16.23;3.40;;;4.00;99.90;;;;;;5100990;27;20038;-72
2022/01/06 00:45:18;;;;;;;17.08;2.60;;;4.00;99.90;;;;;;5117858;27;20087;-76
2022/01/06 00:47:47;;;;;;;18.85;3.58;;;4.00;99.90;;;;;;5118297;27;20066;-74
2022/01/06 00:50:12;;;;;;;19.05;2.75;;;3.90;99.90;;;;;;5133433;27;20026;-74
2022/01/06 00:52:38;;;;;;;16.42;3.25;;;3.80;99.90;;;;;;5135249;27;20099;-74
2022/01/06 00:55:04;;;;;;;18.05;2.50;;;4.00;99.90;;;;;;5085450;27;20050;-72
2022/01/06 00:57:30;;;;;;;11.88;2.67;;;3.70;99.90;;;;;;5112646;27;20039;-71
2022/01/06 00:59:56;;;;;;;12.18;2.03;;;3.70;99.90;;;;;;5129962;27;20031;-73
2022/01/06 01:02:22;;;;;;;13.32;3.00;;;3.60;99.90;;;;;;5131078;27;20047;-73
2022/01/06 01:04:47;;;;;;;16.08;3.00;;;3.60;99.90;;;;;;5117457;27;20134;-75
2022/01/06 01:07:13;;;;;;;16.23;2.42;;;3.60;99.90;;;;;;5114509;27;20047;-73
2022/01/06 01:09:39;;;;;;;13.05;2.55;;;3.50;99.90;;;;;;5123040;27;20577;-74
2022/01/06 01:12:06;;;;;;;9.45;1.88;;;3.50;99.90;;;;;;5098474;27;20043;-74
2022/01/06 01:14:43;;;;;;;16.10;2.67;;;3.50;99.90;;;;;;5115093;27;20047;-72
2022/01/06 01:17:13;;;;;;;8.50;1.70;;;3.40;99.90;;;;;;5128829;27;20050;-72
2022/01/06 01:19:39;;;;;;;7.70;1.50;;;3.40;99.90;;;;;;5097732;27;20043;-74
2022/01/06 01:22:05;;;;;;;9.95;1.85;;;3.40;99.90;;;;;;5133990;27;20027;-73
2022/01/06 01:24:32;;;;;;;9.68;1.70;;;3.40;99.90;;;;;;5100276;27;20470;-74
2022/01/06 01:26:58;;;;;;;8.82;1.75;;;3.30;99.90;;;;;;5081878;27;20075;-74
2022/01/06 01:29:24;;;;;;;9.55;1.75;;;3.20;99.90;;;;;;5102086;27;20138;-77
2022/01/06 01:31:53;;;;;;;8.30;1.83;;;3.10;99.90;;;;;;5116833;27;20099;-74
2022/01/06 01:34:23;;;;;;;5.45;1.73;;;3.10;99.90;;;;;;5115535;27;20042;-75
2022/01/06 01:36:57;;;;;;;5.55;1.45;;;3.30;99.90;;;;;;5087143;27;20039;-73
2022/01/06 01:39:24;;;;;;;7.55;1.30;;;3.20;99.90;;;;;;5115963;27;20066;-75
2022/01/06 01:41:51;;;;;;;7.75;1.55;;;3.10;99.90;;;;;;5135165;27;20419;-71
2022/01/06 01:44:19;;;;;;;6.65;1.33;;;3.00;99.90;;;;;;5117076;27;20070;-71
2022/01/06 01:46:59;;;;;;;7.63;1.85;;;3.80;99.90;;;;;;5118413;27;20038;-73
2022/01/06 01:49:32;;;;;;;7.10;1.77;;;3.00;99.90;;;;;;5128957;27;20039;-74
2022/01/06 01:51:58;;;;;;;10.32;1.85;;;3.20;99.90;;;;;;5116615;27;20038;-72
2022/01/06 01:54:24;;;;;;;8.40;1.40;;;3.10;99.90;;;;;;5131870;27;21041;-74
2022/01/06 01:56:51;;;;;;;4.82;1.40;;;3.00;99.90;;;;;;5116349;27;20074;-75
2022/01/06 01:59:16;;;;;;;9.27;1.83;;;3.30;99.90;;;;;;5131214;27;20156;-73
2022/01/06 02:01:42;;;;;;;7.55;1.20;;;3.00;99.90;;;;;;5132919;27;20141;-74
2022/01/06 02:04:08;;;;;;;17.08;2.55;;;2.80;99.90;;;;;;5128437;27;20046;-75
2022/01/06 02:06:34;;;;;;;12.75;1.75;;;2.90;99.90;;;;;;5100396;27;20565;-74
2022/01/06 02:09:00;;;;;;;5.40;1.75;;;2.90;99.90;;;;;;5116053;27;20159;-76
2022/01/06 02:11:26;;;;;;;9.10;1.70;;;3.10;99.90;;;;;;5115935;27;20042;-73
2022/01/06 02:13:55;;;;;;;5.45;1.50;;;2.80;99.90;;;;;;5126359;27;20529;-74
2022/01/06 02:16:26;;;;;;;6.75;1.25;;;2.70;99.90;;;;;;5132008;27;20042;-72
2022/01/06 02:18:53;;;;;;;9.70;1.88;;;2.60;99.90;;;;;;5125343;27;20043;-75
2022/01/06 02:21:20;;;;;;;6.05;1.20;;;3.30;99.90;;;;;;5110612;27;20035;-73
2022/01/06 02:23:46;;;;;;;7.70;1.63;;;2.50;99.90;;;;;;5099768;27;20058;-70
2022/01/06 02:26:12;;;;;;;6.00;1.45;;;2.30;99.90;;;;;;5115212;27;20039;-72
2022/01/06 02:28:38;;;;;;;5.97;1.20;;;2.30;99.90;;;;;;5132430;27;20042;-71
2022/01/06 02:31:04;;;;;;;9.23;1.33;;;2.40;99.90;;;;;;5133684;27;20049;-71
2022/01/06 02:33:29;;;;;;;5.43;1.50;;;2.40;99.90;;;;;;5116266;27;20480;-72
2022/01/06 02:35:56;;;;;;;4.70;1.33;;;2.40;99.90;;;;;;5116862;27;20049;-72
2022/01/06 02:38:22;;;;;;;8.27;1.30;;;2.30;99.90;;;;;;5098851;27;20753;-74
2022/01/06 02:40:49;;;;;;;10.02;1.60;;;3.20;99.90;;;;;;5131460;27;20039;-75
2022/01/06 02:43:18;;;;;;;9.35;1.98;;;2.90;99.90;;;;;;5130415;27;20030;-75
2022/01/06 02:45:47;;;;;;;7.40;1.73;;;4.10;99.90;;;;;;5133264;27;20490;-75
2022/01/06 02:48:14;;;;;;;10.05;1.98;;;3.30;99.90;;;;;;5132474;27;20038;-74
2022/01/06 02:50:45;;;;;;;18.60;1.95;;;3.20;99.90;;;;;;5115693;27;20038;-76
2022/01/06 02:53:13;;;;;;;16.33;2.20;;;4.00;99.90;;;;;;5132712;27;20428;-73
2022/01/06 02:55:47;;;;;;;8.80;1.67;;;3.30;99.90;;;;;;5121537;27;20054;-74
2022/01/06 02:58:13;;;;;;;5.68;1.70;;;3.20;99.90;;;;;;5117326;27;20038;-73
2022/01/06 03:00:39;;;;;;;8.75;1.75;;;3.20;99.90;;;;;;5099185;27;20084;-74
2022/01/06 03:03:05;;;;;;;11.50;2.03;;;3.00;99.90;;;;;;5114770;27;20034;-73
2022/01/06 03:05:31;;;;;;;8.98;2.10;;;3.20;99.90;;;;;;5099339;27;20178;-75
2022/01/06 03:07:56;;;;;;;8.55;1.92;;;2.90;99.90;;;;;;5103604;27;20038;-73
2022/01/06 03:10:23;;;;;;;10.55;2.10;;;2.90;99.90;;;;;;5117852;27;20050;-74
2022/01/06 03:12:49;;;;;;;12.00;1.95;;;2.80;99.90;;;;;;5130138;27;20117;-73
2022/01/06 03:15:17;;;;;;;10.88;2.30;;;2.80;99.90;;;;;;5114172;27;20103;-73
2022/01/06 03:17:45;;;;;;;8.30;1.70;;;3.00;99.90;;;;;;5132311;27;20034;-73
2022/01/06 03:20:13;;;;;;;13.88;2.10;;;2.70;99.90;;;;;;5133685;27;20390;-72
2022/01/06 03:22:39;;;;;;;10.10;2.20;;;3.20;99.90;;;;;;5112693;27;20530;-75
2022/01/06 03:25:06;;;;;;;11.32;3.08;;;2.70;99.90;;;;;;5125337;27;20502;-71
2022/01/06 03:27:32;;;;;;;15.88;2.00;;;2.70;99.90;;;;;;5126362;27;20066;-72
2022/01/06 03:29:58;;;;;;;7.03;1.77;;;2.70;99.90;;;;;;5131467;27;20517;-71
2022/01/06 03:32:24;;;;;;;5.45;1.52;;;2.50;99.90;;;;;;5111634;27;20529;-75
2022/01/06 03:34:50;;;;;;;12.98;1.95;;;2.40;99.90;;;;;;5108688;27;20043;-74
2022/01/06 03:37:16;;;;;;;6.72;1.75;;;2.30;99.90;;;;;;5115053;27;20049;-73
2022/01/06 03:39:43;;;;;;;11.55;2.00;;;2.30;99.90;;;;;;5131163;27;20126;-73
2022/01/06 03:42:10;;;;;;;13.05;1.80;;;2.40;99.90;;;;;;5131123;27;20137;-73
2022/01/06 03:44:37;;;;;;;6.93;2.05;;;2.40;99.90;;;;;;5129666;27;20054;-74
2022/01/06 03:47:03;;;;;;;9.23;1.92;;;2.30;99.90;;;;;;5115084;27;20435;-74
2022/01/06 03:49:29;;;;;;;10.45;1.83;;;2.20;99.90;;;;;;5111428;28;20031;-73
2022/01/06 03:51:55;;;;;;;7.45;1.75;;;2.20;99.90;;;;;;5129759;27;20030;-75
2022/01/06 03:54:20;;;;;;;8.73;1.67;;;2.10;99.90;;;;;;5129257;27;20121;-77
2022/01/06 03:56:48;;;;;;;6.68;1.73;;;2.00;99.90;;;;;;5110303;27;20043;-73
2022/01/06 03:59:16;;;;;;;8.23;1.70;;;2.00;99.90;;;;;;5115458;27;20467;-74
2022/01/06 04:01:42;;;;;;;8.57;1.40;;;1.90;99.90;;;;;;5115201;27;20129;-75
2022/01/06 04:04:08;;;;;;;10.70;1.33;;;2.50;99.90;;;;;;5132044;27;20051;-73
2022/01/06 04:06:34;;;;;;;6.50;1.50;;;1.80;99.90;;;;;;5129965;27;20038;-74
2022/01/06 04:09:00;;;;;;;8.45;2.30;;;1.70;99.90;;;;;;5113709;27;20035;-73
2022/01/06 04:11:25;;;;;;;5.97;1.70;;;1.80;99.90;;;;;;5113406;27;20118;-75
2022/01/06 04:13:51;;;;;;;8.10;1.73;;;1.70;99.90;;;;;;5114853;27;20042;-72
2022/01/06 04:16:18;;;;;;;9.40;1.98;;;1.60;99.90;;;;;;5114717;27;20046;-73
2022/01/06 04:18:44;;;;;;;9.80;2.30;;;1.90;99.90;;;;;;5128183;27;20039;-74
2022/01/06 04:21:10;;;;;;;10.57;2.17;;;1.70;99.90;;;;;;5115242;27;20087;-73
2022/01/06 04:23:36;;;;;;;12.10;2.10;;;1.60;99.90;;;;;;5097962;27;20463;-72
2022/01/06 04:26:02;;;;;;;11.50;1.73;;;2.40;99.90;;;;;;5132396;27;20034;-73
2022/01/06 04:28:28;;;;;;;12.38;1.98;;;1.70;99.90;;;;;;5130820;27;20638;-73
2022/01/06 04:30:54;;;;;;;11.48;2.58;;;1.70;99.90;;;;;;5113503;27;20442;-73
2022/01/06 04:33:20;;;;;;;9.32;2.00;;;1.70;99.90;;;;;;5092242;28;20188;-73
2022/01/06 04:35:46;;;;;;;8.85;1.60;;;1.70;99.90;;;;;;5127666;27;20122;-71
2022/01/06 04:38:12;;;;;;;14.52;2.20;;;1.60;99.90;;;;;;5095629;27;20118;-73
2022/01/06 04:40:38;;;;;;;14.00;2.70;;;1.80;99.90;;;;;;5132490;27;20053;-72
2022/01/06 04:43:04;;;;;;;16.80;2.30;;;1.70;99.90;;;;;;5116376;27;20124;-74
2022/01/06 04:45:30;;;;;;;10.73;1.63;;;1.80;99.90;;;;;;5135759;27;20074;-74
2022/01/06 04:47:56;;;;;;;10.80;1.58;;;1.70;99.90;;;;;;5117236;27;20053;-73
2022/01/06 04:50:22;;;;;;;13.15;2.70;;;2.30;99.90;;;;;;5117987;27;20046;-75
2022/01/06 04:52:47;;;;;;;14.82;1.85;;;1.90;99.90;;;;;;5117792;27;20078;-75
2022/01/06 04:55:13;;;;;;;7.68;2.45;;;2.40;99.90;;;;;;5117981;27;20125;-76
2022/01/06 04:57:39;;;;;;;15.13;2.55;;;1.70;99.90;;;;;;5135394;27;20060;-76
2022/01/06 05:00:07;;;;;;;12.80;2.30;;;1.50;99.90;;;;;;5094149;27;20033;-74
2022/01/06 05:02:33;;;;;;;11.10;2.25;;;1.50;99.90;;;;;;5096551;27;20410;-72
2022/01/06 05:04:59;;;;;;;12.70;2.47;;;1.50;99.90;;;;;;5110465;27;20066;-75
2022/01/06 05:07:25;;;;;;;13.48;1.80;;;1.50;99.90;;;;;;5117744;27;20111;-76
2022/01/06 05:09:51;;;;;;;15.80;2.05;;;1.70;99.90;;;;;;5133459;27;20122;-75
2022/01/06 05:12:17;;;;;;;11.45;2.05;;;1.90;99.90;;;;;;5119346;27;20100;-74
2022/01/06 05:14:42;;;;;;;10.02;2.20;;;1.70;99.90;;;;;;5101101;27;20046;-74
2022/01/06 05:17:09;;;;;;;10.85;2.17;;;1.60;99.90;;;;;;5133987;27;20123;-72
2022/01/06 05:19:35;;;;;;;10.43;2.50;;;1.60;99.90;;;;;;5096220;27;20031;-75
2022/01/06 05:22:02;;;;;;;11.32;1.90;;;1.70;99.90;;;;;;5114619;27;20037;-75
2022/01/06 05:24:28;;;;;;;9.00;2.35;;;1.50;99.90;;;;;;5104703;27;20042;-74
2022/01/06 05:26:55;;;;;;;17.65;2.45;;;1.40;99.90;;;;;;5128828;27;20038;-72
2022/01/06 05:29:21;;;;;;;16.85;2.85;;;1.40;99.90;;;;;;5084582;27;20035;-75
2022/01/06 05:31:47;;;;;;;10.45;1.83;;;1.30;99.90;;;;;;5125049;27;20039;-74
2022/01/06 05:34:13;;;;;;;11.27;1.95;;;1.30;99.90;;;;;;5133788;27;20530;-74
2022/01/06 05:36:39;;;;;;;11.20;1.98;;;1.40;99.90;;;;;;5117401;27;20035;-72
2022/01/06 05:39:05;;;;;;;8.93;2.50;;;1.20;99.90;;;;;;5133442;27;20133;-72
2022/01/06 05:41:31;;;;;;;10.35;1.77;;;1.30;99.90;;;;;;5089875;27;20121;-76
2022/01/06 05:43:56;;;;;;;11.88;2.38;;;1.30;99.90;;;;;;5116760;27;20035;-73
2022/01/06 05:46:22;;;;;;;18.85;2.60;;;1.50;99.90;;;;;;5117710;27;20039;-76
2022/01/06 05:48:48;;;;;;;11.95;2.58;;;1.30;99.90;;;;;;5116419;27;20070;-73
2022/01/06 05:51:13;;;;;;;11.30;2.47;;;2.20;99.90;;;;;;5115830;27;20042;-74
2022/01/06 05:53:40;;;;;;;9.88;2.28;;;1.40;99.90;;;;;;5133060;27;20042;-74
2022/01/06 05:56:05;;;;;;;7.18;1.70;;;1.50;99.90;;;;;;5133781;27;20042;-73
2022/01/06 05:58:32;;;;;;;16.45;2.22;;;1.70;99.90;;;;;;5116794;27;20041;-75
2022/01/06 06:00:57;;;;;;;13.05;2.92;;;1.60;99.90;;;;;;5116254;27;20087;-72
2022/01/06 06:03:27;;;;;;;8.05;2.00;;;1.60;99.90;;;;;;5095670;27;20054;-74
2022/01/06 06:05:53;;;;;;;15.30;2.05;;;1.70;99.90;;;;;;5117463;27;20042;-74
2022/01/06 06:08:19;;;;;;;12.10;2.47;;;1.80;99.90;;;;;;5112936;27;20042;-76
2022/01/06 06:10:45;;;;;;;17.73;3.80;;;1.70;99.90;;;;;;5115246;27;20504;-73
2022/01/06 06:13:10;;;;;;;13.93;2.78;;;1.80;99.90;;;;;;5130889;27;20039;-73
2022/01/06 06:15:36;;;;;;;13.27;2.65;;;2.10;99.90;;;;;;5096319;27;20499;-74
2022/01/06 06:18:06;;;;;;;12.90;2.95;;;1.80;99.90;;;;;;5098740;27;20035;-74
2022/01/06 06:20:32;;;;;;;16.73;3.40;;;1.80;99.90;;;;;;5134916;27;20190;-75
2022/01/06 06:22:58;;;;;;;14.05;2.72;;;1.70;99.90;;;;;;5134046;27;20129;-74
2022/01/06 06:25:25;;;;;;;13.95;2.90;;;1.70;99.90;;;;;;5115699;27;20049;-72
2022/01/06 06:27:51;;;;;;;14.52;2.95;;;1.70;99.90;;;;;;5115105;27;20037;-74
2022/01/06 06:30:18;;;;;;;13.40;2.25;;;1.80;99.90;;;;;;5130137;27;20039;-72
2022/01/06 06:32:44;;;;;;;14.00;2.95;;;1.80;99.90;;;;;;5116541;27;20047;-75
2022/01/06 06:35:10;;;;;;;13.13;2.95;;;1.80;99.90;;;;;;5099850;27;20504;-74
2022/01/06 06:37:37;;;;;;;11.13;3.03;;;1.70;99.90;;;;;;5116275;27;20045;-72
2022/01/06 06:40:05;;;;;;;15.73;3.30;;;1.70;99.90;;;;;;5116384;27;20034;-72
2022/01/06 06:42:30;;;;;;;14.57;2.45;;;1.60;99.90;;;;;;5134222;27;20179;-75
2022/01/06 06:44:56;;;;;;;14.27;3.25;;;1.50;99.90;;;;;;5114902;27;20125;-75
2022/01/06 06:47:23;;;;;;;15.15;3.47;;;1.40;99.90;;;;;;5116937;27;20038;-75
2022/01/06 06:49:48;;;;;;;13.93;3.25;;;1.40;99.90;;;;;;5116254;27;20046;-75
2022/01/06 06:52:14;;;;;;;11.40;2.83;;;1.40;99.90;;;;;;5133640;27;20050;-72
2022/01/06 06:54:40;;;;;;;7.72;2.78;;;1.40;99.90;;;;;;5092975;27;20045;-75
2022/01/06 06:57:06;;;;;;;18.00;3.28;;;1.70;99.90;;;;;;5110534;27;20039;-74
2022/01/06 06:59:32;;;;;;;14.98;3.53;;;1.50;99.90;;;;;;5095895;27;20061;-76
2022/01/06 07:01:58;;;;;;;12.55;2.53;;;1.50;99.90;;;;;;5107133;27;20054;-77
2022/01/06 07:04:24;;;;;;;16.67;3.67;;;1.40;99.90;;;;;;5133010;27;20030;-76
2022/01/06 07:06:49;;;;;;;13.65;2.65;;;1.40;99.90;;;;;;5114689;27;20130;-73
2022/01/06 07:09:15;;;;;;;16.08;2.92;;;1.30;99.90;;;;;;5116108;27;20038;-74
2022/01/06 07:11:41;;;;;;;13.35;3.00;;;1.30;99.90;;;;;;5102762;27;20049;-74
2022/01/06 07:14:07;;;;;;;12.25;2.90;;;1.30;99.90;;;;;;5133469;27;20121;-74
2022/01/06 07:16:33;;;;;;;10.75;2.70;;;1.30;99.90;;;;;;5116561;27;20046;-76
2022/01/06 07:18:59;;;;;;;11.27;2.65;;;1.30;99.90;;;;;;5082027;27;20461;-75
2022/01/06 07:21:24;;;;;;;17.65;3.83;;;1.20;99.90;;;;;;5099093;27;20638;-75
2022/01/06 07:23:52;;;;;;;9.15;2.90;;;2.40;99.90;;;;;;5131443;27;20134;-76
2022/01/06 07:26:18;;;;;;;12.90;3.17;;;1.40;99.90;;;;;;5132588;27;20038;-75
2022/01/06 07:28:44;;;;;;;11.57;3.42;;;1.40;99.90;;;;;;5115708;27;20095;-73
2022/01/06 07:31:10;;;;;;;17.63;3.83;;;1.40;99.90;;;;;;5133291;27;20050;-73
2022/01/06 07:33:36;;;;;;;17.08;3.83;;;1.50;99.90;;;;;;5116371;27;20035;-76
2022/01/06 07:36:02;;;;;;;14.90;3.75;;;1.60;99.90;;;;;;5115207;27;20038;-74
2022/01/06 07:38:28;;;;;;;17.42;3.70;;;1.50;99.90;;;;;;5111464;28;20077;-74
2022/01/06 07:40:55;;;;;;;15.40;3.78;;;1.50;99.90;;;;;;5078288;28;20444;-76
2022/01/06 07:43:21;;;;;;;13.60;3.70;;;2.00;99.90;;;;;;5107004;27;20038;-73
2022/01/06 07:45:48;;;;;;;18.45;4.57;;;1.50;99.90;;;;;;5132439;27;20092;-73
2022/01/06 07:48:17;;;;;;;18.75;3.38;;;1.50;99.90;;;;;;5132828;27;20074;-75
2022/01/06 07:50:44;;;;;;;12.02;3.90;;;1.40;99.90;;;;;;5133110;27;20364;-75
2022/01/06 07:53:11;;;;;;;13.70;2.83;;;1.30;99.90;;;;;;5132514;27;20041;-75
2022/01/06 07:55:37;;;;;;;16.58;3.60;;;1.30;99.90;;;;;;5115354;27;20403;-74
2022/01/06 07:58:03;;;;;;;19.10;3.28;;;1.60;99.90;;;;;;5113450;27;20076;-70
2022/01/06 08:00:29;;;;;;;15.35;3.17;;;1.40;99.90;;;;;;5133180;27;20383;-72
2022/01/06 08:02:55;;;;;;;17.50;3.67;;;1.40;99.90;;;;;;5131458;27;20051;-72
2022/01/06 08:05:25;;;;;;;12.23;3.10;;;1.40;99.90;;;;;;5132557;27;20034;-74
2022/01/06 08:07:50;;;;;;;14.32;3.40;;;1.40;99.90;;;;;;5114514;27;20039;-70
2022/01/06 08:10:16;;;;;;;14.45;3.53;;;1.40;99.90;;;;;;5132551;27;20043;-73
2022/01/06 08:12:42;;;;;;;15.82;2.90;;;1.40;99.90;;;;;;5097894;27;20043;-71
2022/01/06 08:15:09;;;;;;;16.23;3.63;;;1.40;99.90;;;;;;5114636;27;20043;-75
2022/01/06 08:17:38;;;;;;;19.77;3.83;;;1.50;99.90;;;;;;5073355;27;20433;-71
2022/01/06 08:20:06;;;;;;;9.73;2.65;;;1.40;99.90;;;;;;5085042;27;20034;-72
2022/01/06 08:22:32;;;;;;;8.15;3.05;;;1.50;99.90;;;;;;5136137;27;20027;-72
2022/01/06 08:24:58;;;;;;;15.63;3.13;;;1.50;99.90;;;;;;5135317;27;20030;-72
2022/01/06 08:27:24;;;;;;;10.32;2.70;;;1.50;99.90;;;;;;5101840;27;20078;-73
2022/01/06 08:29:52;;;;;;;12.52;2.90;;;1.60;99.90;;;;;;5117487;27;20038;-75
2022/01/06 08:32:19;;;;;;;12.60;3.38;;;1.80;99.90;;;;;;5102020;27;20356;-74
2022/01/06 08:34:45;;;;;;;19.77;4.63;;;2.00;99.90;;;;;;5118274;27;20041;-74
2022/01/06 08:37:11;;;;;;;16.67;3.58;;;2.10;99.90;;;;;;5113892;27;20051;-73
2022/01/06 08:39:36;;;;;;;13.55;3.20;;;2.20;99.90;;;;;;5108427;27;20045;-71
2022/01/06 08:42:03;;;;;;;10.60;3.03;;;2.70;99.90;;;;;;5101294;27;20551;-72
2022/01/06 08:44:28;;;;;;;14.23;2.53;;;2.60;99.90;;;;;;5117931;27;20041;-72
2022/01/06 08:46:55;;;;;;;10.35;2.38;;;2.90;99.90;;;;;;5112294;27;20649;-70
2022/01/06 08:49:21;;;;;;;10.15;2.25;;;3.20;99.90;;;;;;5126987;27;20126;-73
2022/01/06 08:51:48;;;;;;;9.02;1.88;;;3.60;99.90;;;;;;5136045;27;20129;-69
2022/01/06 08:54:14;;;;;;;10.15;1.98;;;3.80;99.90;;;;;;5101049;27;20530;-71
2022/01/06 08:56:39;;;;;;;11.80;1.75;;;3.40;99.90;;;;;;5132411;27;20119;-71
2022/01/06 08:59:05;;;;;;;15.15;2.05;;;3.50;99.90;;;;;;5113857;27;20038;-73
2022/01/06 09:01:32;;;;;;;7.35;2.30;;;3.50;99.90;;;;;;5118513;27;20086;-73
2022/01/06 09:03:58;;;;;;;7.97;1.67;;;3.40;99.90;;;;;;5135387;27;20051;-74
2022/01/06 09:06:24;;;;;;;11.60;2.38;;;3.40;99.90;;;;;;5135554;27;20118;-71
2022/01/06 09:08:49;;;;;;;9.68;2.33;;;3.50;99.90;;;;;;5133188;27;20091;-71
2022/01/06 09:11:16;;;;;;;10.18;2.40;;;3.60;99.90;;;;;;5100580;27;20091;-75
2022/01/06 09:13:42;;;;;;;12.43;3.58;;;3.60;99.90;;;;;;5135110;27;20077;-72
2022/01/06 09:16:08;;;;;;;13.63;2.65;;;3.50;99.90;;;;;;5088210;27;20121;-72
2022/01/06 09:18:40;;;;;;;5.78;2.72;;;4.50;99.90;;;;;;5110324;27;20060;-71
2022/01/06 09:21:06;;;;;;;12.15;2.63;;;3.50;99.90;;;;;;5128745;27;20049;-70
2022/01/06 09:23:33;;;;;;;14.65;2.97;;;3.70;99.90;;;;;;5111996;27;20035;-72
2022/01/06 09:25:58;;;;;;;17.60;4.35;;;3.50;99.90;;;;;;5117902;27;20052;-71
2022/01/06 09:28:24;;;;;;;12.32;2.63;;;3.60;99.90;;;;;;5107427;27;20658;-71
2022/01/06 09:30:51;;;;;;;15.90;3.30;;;3.70;99.90;;;;;;5116749;27;20155;-69
2022/01/06 09:33:18;;;;;;;15.23;3.40;;;3.90;99.90;;;;;;5096441;27;20062;-70
2022/01/06 09:35:48;;;;;;;15.40;3.10;;;4.20;99.90;;;;;;5113824;27;20039;-70
2022/01/06 09:38:15;;;;;;;13.63;3.72;;;4.20;99.90;;;;;;5107946;27;20039;-72
2022/01/06 09:40:43;;;;;;;25.02;4.28;;;4.40;99.90;;;;;;5100188;27;20367;-73
2022/01/06 09:43:12;;;;;;;14.38;4.20;;;4.40;99.90;;;;;;5124790;27;20030;-72
2022/01/06 09:45:38;;;;;;;11.13;3.30;;;4.40;99.90;;;;;;5110167;27;20143;-72
2022/01/06 09:48:05;;;;;;;13.73;3.05;;;4.70;99.90;;;;;;5128165;27;20041;-73
2022/01/06 09:50:31;;;;;;;17.17;3.17;;;4.70;99.90;;;;;;5124532;27;20498;-72
2022/01/06 09:52:57;;;;;;;14.07;2.78;;;4.80;99.90;;;;;;5106956;27;20050;-72
2022/01/06 09:55:23;;;;;;;15.93;3.40;;;5.20;99.90;;;;;;5102197;27;20034;-73
2022/01/06 09:57:59;;;;;;;15.68;2.63;;;5.00;99.90;;;;;;5128662;27;20047;-72
2022/01/06 10:00:29;;;;;;;11.90;2.60;;;5.00;99.90;;;;;;5107918;27;20494;-72
2022/01/06 10:02:57;;;;;;;12.32;2.33;;;4.80;99.90;;;;;;5126034;27;20141;-73
2022/01/06 10:05:25;;;;;;;14.60;3.55;;;4.60;99.90;;;;;;5109083;27;20031;-71
2022/01/06 10:07:54;;;;;;;12.38;2.95;;;4.60;99.90;;;;;;5108188;27;20050;-70
2022/01/06 10:10:27;;;;;;;12.57;2.30;;;5.10;99.90;;;;;;5124710;27;20039;-73
2022/01/06 10:12:58;;;;;;;10.75;2.15;;;5.10;99.90;;;;;;5124550;27;20079;-73
2022/01/06 10:15:26;;;;;;;20.70;3.60;;;5.20;99.90;;;;;;5117068;27;20072;-71
2022/01/06 10:17:52;;;;;;;13.13;3.55;;;5.20;99.90;;;;;;5127309;27;20095;-70
2022/01/06 10:20:21;;;;;;;12.77;2.80;;;5.20;99.90;;;;;;5104471;27;20059;-74
2022/01/06 10:22:50;;;;;;;13.05;2.92;;;5.30;99.90;;;;;;5110806;27;20042;-73
2022/01/06 10:25:17;;;;;;;9.52;2.35;;;5.40;99.90;;;;;;5126269;27;20027;-72
2022/01/06 10:27:45;;;;;;;12.32;2.42;;;5.40;99.90;;;;;;5123969;27;20398;-70
2022/01/06 10:30:13;;;;;;;11.68;2.88;;;5.40;99.90;;;;;;5125471;27;20050;-73
2022/01/06 10:32:39;;;;;;;13.40;2.80;;;5.10;99.90;;;;;;5126063;27;20051;-72
2022/01/06 10:35:08;;;;;;;12.73;3.17;;;5.00;99.90;;;;;;5126705;27;20095;-72
2022/01/06 10:37:44;;;;;;;14.07;3.28;;;4.90;99.90;;;;;;5117324;27;20043;-70
2022/01/06 10:40:19;;;;;;;12.95;3.13;;;4.90;99.90;;;;;;5108617;27;20045;-71
2022/01/06 10:42:47;;;;;;;17.55;3.05;;;4.90;99.90;;;;;;5090033;27;20059;-72
2022/01/06 10:45:23;;;;;;;11.45;2.80;;;5.30;99.90;;;;;;5112932;27;20038;-72
2022/01/06 10:47:52;;;;;;;13.70;3.53;;;5.50;99.90;;;;;;5126778;27;20046;-71
2022/01/06 10:50:25;;;;;;;11.23;2.80;;;5.90;99.90;;;;;;5124669;27;20042;-71
2022/01/06 10:52:56;;;;;;;11.45;2.50;;;6.10;99.90;;;;;;5127571;27;20145;-73
2022/01/06 10:55:27;;;;;;;11.48;2.70;;;6.30;99.90;;;;;;5125109;27;20034;-73
2022/01/06 10:57:53;;;;;;;12.82;2.75;;;6.30;99.90;;;;;;5127307;27;20042;-70
2022/01/06 11:00:22;;;;;;;9.77;2.83;;;6.50;99.90;;;;;;5107422;27;20050;-73
2022/01/06 11:02:47;;;;;;;11.90;3.00;;;6.60;99.90;;;;;;5122064;27;20059;-72
2022/01/06 11:05:13;;;;;;;10.85;2.80;;;7.20;99.90;;;;;;5105430;27;20042;-70
2022/01/06 11:07:40;;;;;;;10.80;2.97;;;7.10;99.90;;;;;;5123892;27;20411;-73
2022/01/06 11:10:14;;;;;;;17.13;3.92;;;7.40;99.90;;;;;;5105200;27;20122;-73
2022/01/06 11:12:40;;;;;;;14.27;3.00;;;7.60;99.90;;;;;;5120811;27;21001;-71
2022/01/06 11:15:06;;;;;;;12.18;2.90;;;7.50;99.90;;;;;;5120138;27;20305;-72
2022/01/06 11:17:33;;;;;;;9.07;2.50;;;7.70;99.90;;;;;;5104272;28;20051;-74
2022/01/06 11:19:59;;;;;;;11.98;3.17;;;8.00;99.90;;;;;;5122205;27;20043;-71
2022/01/06 11:22:25;;;;;;;16.83;3.25;;;7.80;99.90;;;;;;5088417;27;20053;-71
2022/01/06 11:24:53;;;;;;;11.60;2.83;;;8.00;99.90;;;;;;5119892;27;20482;-72
2022/01/06 11:27:33;;;;;;;12.30;2.80;;;7.90;99.90;;;;;;5122812;27;20046;-72
2022/01/06 11:30:14;;;;;;;17.88;3.83;;;7.90;99.90;;;;;;5121307;27;20065;-68
2022/01/06 11:32:44;;;;;;;14.85;2.50;;;7.80;99.90;;;;;;5123490;27;20428;-71
2022/01/06 11:35:15;;;;;;;9.73;2.58;;;7.60;99.90;;;;;;5086211;28;20092;-73
2022/01/06 11:37:50;;;;;;;13.20;2.70;;;8.00;99.90;;;;;;5121943;27;20039;-73
2022/01/06 11:40:28;;;;;;;14.73;3.70;;;8.00;99.90;;;;;;5119551;27;20577;-71
2022/01/06 11:42:55;;;;;;;14.00;3.08;;;7.10;99.90;;;;;;5122510;28;20087;-72
2022/01/06 11:45:21;;;;;;;11.80;3.50;;;6.80;99.90;;;;;;5119136;28;20509;-71
2022/01/06 11:47:47;;;;;;;17.73;4.47;;;7.00;99.90;;;;;;5122161;27;20043;-73
2022/01/06 11:50:24;;;;;;;12.18;3.15;;;7.10;99.90;;;;;;5107779;27;20042;-71
2022/01/06 11:52:56;;;;;;;16.98;3.85;;;7.20;99.90;;;;;;5124507;27;20043;-71
2022/01/06 11:55:28;;;;;;;14.73;2.88;;;7.70;99.90;;;;;;5125032;27;20061;-69
2022/01/06 11:57:54;;;;;;;11.93;2.58;;;8.30;99.90;;;;;;5109913;27;20043;-70
2022/01/06 12:00:24;;;;;;;13.45;3.03;;;8.50;99.90;;;;;;5126835;27;20027;-70
2022/01/06 12:03:04;;;;;;;18.00;3.13;;;7.90;99.90;;;;;;5108499;27;20063;-72
2022/01/06 12:05:51;;;;;;;12.55;3.00;;;7.90;99.90;;;;;;5123794;27;20038;-73
2022/01/06 12:08:32;;;;;;;10.77;3.38;;;7.60;99.90;;;;;;5111197;27;20047;-72
2022/01/06 12:10:58;;;;;;;13.13;3.78;;;7.70;99.90;;;;;;5127024;27;20072;-71
2022/01/06 12:13:24;;;;;;;12.40;3.47;;;7.60;99.90;;;;;;5107172;27;20111;-70
2022/01/06 12:15:55;;;;;;;14.27;3.55;;;7.60;99.90;;;;;;5099938;27;20071;-72
2022/01/06 12:18:22;;;;;;;13.15;3.58;;;7.20;99.90;;;;;;5116797;27;20546;-72
2022/01/06 12:20:49;;;;;;;15.32;3.63;;;7.20;99.90;;;;;;5126948;27;20046;-70
2022/01/06 12:23:16;;;;;;;10.30;2.92;;;7.00;99.90;;;;;;5124139;27;20074;-72
2022/01/06 12:26:12;;;;;;;14.10;3.00;;;6.70;99.90;;;;;;5125156;27;20115;-70
2022/01/06 12:28:47;;;;;;;10.40;3.30;;;6.70;99.90;;;;;;5125682;27;20815;-70
2022/01/06 12:31:20;;;;;;;;;;;6.50;99.90;;;;;;5108706;27;20086;-73
2022/01/06 12:33:48;;;;;;;18.42;3.47;;;6.50;99.90;;;;;;5106400;28;19930;-72
2022/01/06 12:36:20;;;;;;;9.98;2.55;;;6.50;99.90;;;;;;5119341;27;20155;-71
2022/01/06 12:38:47;;;;;;;13.23;3.13;;;6.50;99.90;;;;;;5104611;28;20047;-70
2022/01/06 12:41:16;;;;;;;11.52;2.85;;;6.30;99.90;;;;;;5072199;28;20127;-69
2022/01/06 12:43:44;;;;;;;9.50;2.67;;;6.40;99.90;;;;;;5125136;27;20633;-69
2022/01/06 12:46:16;;;;;;;12.00;2.95;;;6.20;99.90;;;;;;5089260;27;20042;-71
2022/01/06 12:48:46;;;;;;;14.50;2.80;;;6.20;99.90;;;;;;5106987;27;20646;-69
2022/01/06 12:51:26;;;;;;;9.30;2.58;;;6.20;99.90;;;;;;5124591;27;20193;-73
2022/01/06 12:54:03;;;;;;;9.50;3.08;;;6.10;99.90;;;;;;5119328;27;20375;-70
2022/01/06 12:56:36;;;;;;;12.05;2.75;;;6.10;99.90;;;;;;5124080;27;20510;-73